createdAt,value
2023-03-02T00:03:09.107Z,44.13
2023-03-02T00:08:19.896Z,43.80
2023-03-02T00:13:28.308Z,40.60
2023-03-02T00:18:35.115Z,42.77
2023-03-02T00:23:42.337Z,47.53
2023-03-02T00:28:50.235Z,48.53
2023-03-02T00:33:57.880Z,47.93
2023-03-02T00:39:05.314Z,49.00
2023-03-02T00:44:15.059Z,46.10
2023-03-02T00:49:23.352Z,50.78
2023-03-02T00:54:31.360Z,47.57
2023-03-02T00:59:40.640Z,45.37
2023-03-02T01:04:49.207Z,41.20
2023-03-02T01:09:58.785Z,40.63
2023-03-02T01:15:09.718Z,42.47
2023-03-02T01:20:17.826Z,42.27
2023-03-02T01:25:25.709Z,43.00
2023-03-02T01:30:33.529Z,43.87
2023-03-02T01:35:42.014Z,43.93
2023-03-02T01:40:49.778Z,42.77
2023-03-02T01:46:10.390Z,39.98
2023-03-02T01:51:22.210Z,40.40
2023-03-02T01:56:34.896Z,39.00
2023-03-02T02:01:46.656Z,37.67
2023-03-02T02:07:07.324Z,40.63
2023-03-02T02:12:22.534Z,39.15
2023-03-02T02:17:34.185Z,39.58
2023-03-02T02:23:07.733Z,38.30
2023-03-02T02:28:20.799Z,37.93
2023-03-02T02:33:29.732Z,38.02
2023-03-02T02:38:42.270Z,38.13
2023-03-02T02:43:50.771Z,36.97
2023-03-02T02:48:57.903Z,36.90
2023-03-02T02:54:07.063Z,37.40
2023-03-02T02:59:30.502Z,37.00
2023-03-02T03:04:39.594Z,35.30
2023-03-02T03:09:58.503Z,37.17
2023-03-02T03:15:06.418Z,37.77
2023-03-02T03:20:17.758Z,44.10
2023-03-02T03:25:29.701Z,42.90
2023-03-02T03:30:37.465Z,40.37
2023-03-02T03:35:45.824Z,42.67
2023-03-02T03:40:52.657Z,45.50
2023-03-02T03:46:00.443Z,39.23
2023-03-02T03:51:09.789Z,37.40
2023-03-02T03:56:19.864Z,35.87
2023-03-02T04:01:30.053Z,38.28
2023-03-02T04:06:39.252Z,32.37
2023-03-02T04:11:49.406Z,34.77
2023-03-02T04:16:57.201Z,33.13
2023-03-02T04:22:04.910Z,32.53
2023-03-02T04:27:12.174Z,33.67
2023-03-02T04:32:21.579Z,33.35
2023-03-02T04:37:31.599Z,34.50
2023-03-02T04:42:39.324Z,33.80
2023-03-02T04:47:46.517Z,32.83
2023-03-02T04:52:53.577Z,30.57
2023-03-02T04:58:02.170Z,31.07
2023-03-02T05:03:11.883Z,32.73
2023-03-02T05:08:19.741Z,29.90
2023-03-02T05:13:28.386Z,30.67
2023-03-02T05:18:37.631Z,31.33
2023-03-02T05:23:45.781Z,31.77
2023-03-02T05:28:54.085Z,32.43
2023-03-02T05:34:01.988Z,30.37
2023-03-02T05:39:11.761Z,29.80
2023-03-02T05:44:20.673Z,29.98
2023-03-02T05:49:28.445Z,31.93
2023-03-02T05:54:36.251Z,32.00
2023-03-02T05:59:43.587Z,34.60
2023-03-02T06:04:51.375Z,34.40
2023-03-02T06:09:58.588Z,33.10
2023-03-02T06:15:08.809Z,35.87
2023-03-02T06:20:18.691Z,50.93
2023-03-02T06:25:27.034Z,49.97
2023-03-02T06:30:35.049Z,33.13
2023-03-02T06:35:42.535Z,34.07
2023-03-02T06:40:50.476Z,37.03
2023-03-02T06:45:58.365Z,37.07
2023-03-02T06:51:05.749Z,39.17
2023-03-02T06:56:14.432Z,49.93
2023-03-02T07:01:23.496Z,41.88
2023-03-02T07:06:31.080Z,42.78
2023-03-02T07:11:39.033Z,39.20
2023-03-02T07:16:46.645Z,38.43
2023-03-02T07:21:54.021Z,41.13
2023-03-02T07:27:00.736Z,40.83
2023-03-02T07:32:10.152Z,43.00
2023-03-02T07:37:16.659Z,46.50
2023-03-02T07:42:24.674Z,47.23
2023-03-02T07:47:32.839Z,49.67
2023-03-02T07:52:39.893Z,47.23
2023-03-02T08:02:53.712Z,47.17
2023-03-02T08:08:01.058Z,55.83
2023-03-02T08:13:08.636Z,64.63
2023-03-02T08:18:16.371Z,53.77
2023-03-02T08:23:24.216Z,53.23
2023-03-02T08:28:34.353Z,56.18
2023-03-02T08:33:41.046Z,59.27
2023-03-02T08:38:49.827Z,60.60
2023-03-02T08:43:57.474Z,65.27
2023-03-02T08:49:04.428Z,65.63
2023-03-02T08:54:13.959Z,73.23
2023-03-02T08:59:23.022Z,69.70
2023-03-02T09:04:30.283Z,73.70
2023-03-02T09:14:47.530Z,61.58
2023-03-02T09:19:54.512Z,59.83
2023-03-02T09:25:01.388Z,60.35
2023-03-02T09:30:09.842Z,58.63
2023-03-02T09:35:16.741Z,56.47
2023-03-02T09:40:27.747Z,56.88
2023-03-02T09:46:01.315Z,57.27
2023-03-02T09:51:32.682Z,56.83
2023-03-02T09:56:54.691Z,57.00
2023-03-02T10:02:32.457Z,58.07
2023-03-02T10:07:41.806Z,56.93
2023-03-02T10:13:07.109Z,57.70
2023-03-02T10:18:43.579Z,56.27
2023-03-02T10:24:20.148Z,56.67
2023-03-02T10:29:55.626Z,57.53
2023-03-02T10:35:24.610Z,58.27
2023-03-02T10:40:48.374Z,58.45
2023-03-02T10:46:08.951Z,57.80
2023-03-02T10:51:38.062Z,59.60
2023-03-02T10:56:52.130Z,59.57
2023-03-02T11:02:18.534Z,59.63
2023-03-02T11:07:30.125Z,48.80
2023-03-02T11:12:38.804Z,59.47
2023-03-02T11:17:49.601Z,56.77
2023-03-02T11:23:23.099Z,51.77
2023-03-02T11:28:34.935Z,57.43
2023-03-02T11:34:34.895Z,52.36
2023-03-02T11:39:56.169Z,57.50
2023-03-02T11:45:25.765Z,57.53
2023-03-02T11:50:37.696Z,56.03
2023-03-02T11:55:50.058Z,61.43
2023-03-02T12:00:58.244Z,59.40
2023-03-02T12:06:22.372Z,54.93
2023-03-02T12:11:39.321Z,60.13
2023-03-02T12:16:46.725Z,62.43
2023-03-02T12:22:05.969Z,59.43
2023-03-02T12:27:23.118Z,60.74
2023-03-02T12:32:35.035Z,62.03
2023-03-02T12:38:07.156Z,61.87
2023-03-02T12:43:30.297Z,60.47
2023-03-02T12:48:50.277Z,61.93
2023-03-02T12:54:16.138Z,62.23
2023-03-02T12:59:29.380Z,78.87
2023-03-02T13:04:36.129Z,61.47
2023-03-02T13:09:55.660Z,64.53
2023-03-02T13:14:59.206Z,61.90
2023-03-02T13:20:07.688Z,60.77
2023-03-02T13:25:30.488Z,61.40
2023-03-02T13:30:40.802Z,61.90
2023-03-02T13:35:49.676Z,63.20
2023-03-02T13:40:58.790Z,61.17
2023-03-02T13:46:16.295Z,59.20
2023-03-02T13:51:26.347Z,54.88
2023-03-02T13:56:39.652Z,59.93
2023-03-02T14:01:46.744Z,59.57
2023-03-02T14:06:56.828Z,58.40
2023-03-02T14:12:03.197Z,60.57
2023-03-02T14:22:26.639Z,62.17
2023-03-02T14:27:35.560Z,55.70
2023-03-02T14:32:42.105Z,60.80
2023-03-02T14:37:51.325Z,60.37
2023-03-02T14:42:59.051Z,59.53
2023-03-02T14:48:07.155Z,59.97
2023-03-02T14:53:25.194Z,58.25
2023-03-02T14:58:35.277Z,60.52
2023-03-02T15:03:42.190Z,60.60
2023-03-02T15:08:49.320Z,66.50
2023-03-02T15:13:56.576Z,68.90
2023-03-02T15:19:03.955Z,63.83
2023-03-02T15:24:11.107Z,63.37
2023-03-02T15:29:19.795Z,61.33
2023-03-02T15:34:27.214Z,60.92
2023-03-02T15:39:35.025Z,62.53
2023-03-02T15:44:42.198Z,61.50
2023-03-02T15:49:50.011Z,66.07
2023-03-02T15:54:57.199Z,75.63
2023-03-02T16:00:05.361Z,63.40
2023-03-02T16:05:12.220Z,65.07
2023-03-02T16:10:21.456Z,73.95
2023-03-02T16:15:31.693Z,73.07
2023-03-02T16:20:41.570Z,60.07
2023-03-02T16:25:50.334Z,61.07
2023-03-02T16:31:06.842Z,62.07
2023-03-02T16:36:14.944Z,61.65
2023-03-02T16:41:24.832Z,60.20
2023-03-02T16:46:40.008Z,60.43
2023-03-02T16:51:47.238Z,60.27
2023-03-02T16:56:54.338Z,58.50
2023-03-02T17:02:01.134Z,68.87
2023-03-02T17:07:09.162Z,70.28
2023-03-02T17:12:16.100Z,60.07
2023-03-02T17:17:25.943Z,69.37
2023-03-02T17:22:33.092Z,61.23
2023-03-02T17:27:40.604Z,62.20
2023-03-02T17:32:48.895Z,79.77
2023-03-02T17:37:56.213Z,67.13
2023-03-02T17:48:11.581Z,78.57
2023-03-02T17:53:18.788Z,104.60
2023-03-02T17:58:30.618Z,124.43
2023-03-02T18:03:35.056Z,129.13
2023-03-02T18:08:43.115Z,78.77
2023-03-02T18:13:54.074Z,104.83
2023-03-02T18:19:02.399Z,76.03
2023-03-02T18:24:10.794Z,72.07
2023-03-02T18:29:18.650Z,86.53
2023-03-02T18:34:27.004Z,73.12
2023-03-02T18:39:34.221Z,72.70
2023-03-02T18:44:41.326Z,83.33
2023-03-02T18:49:51.183Z,73.72
2023-03-02T18:54:58.857Z,79.97
2023-03-02T19:00:09.227Z,63.57
2023-03-02T19:05:18.303Z,119.30
2023-03-02T19:10:26.520Z,102.73
2023-03-02T19:15:36.395Z,84.52
2023-03-02T19:20:46.388Z,77.93
2023-03-02T19:25:53.850Z,67.27
2023-03-02T19:31:09.089Z,73.50
2023-03-02T19:36:17.663Z,88.75
2023-03-02T19:41:25.359Z,103.00
2023-03-02T19:46:33.823Z,101.13
2023-03-02T19:51:41.467Z,80.70
2023-03-02T19:56:50.576Z,86.95
2023-03-02T20:02:00.260Z,81.87
2023-03-02T20:07:07.657Z,72.07
2023-03-02T20:12:16.138Z,84.50
2023-03-02T20:17:23.370Z,76.20
2023-03-02T20:22:33.294Z,86.53
2023-03-02T20:27:40.138Z,94.23
2023-03-02T20:32:47.523Z,91.60
2023-03-02T20:37:59.410Z,102.93
2023-03-02T20:43:07.632Z,84.20
2023-03-02T20:48:17.656Z,84.23
2023-03-02T20:53:26.417Z,126.53
2023-03-02T20:58:37.659Z,115.27
2023-03-02T21:03:45.700Z,95.27
2023-03-02T21:08:52.846Z,111.70
2023-03-02T21:14:02.304Z,125.03
2023-03-02T21:19:17.278Z,106.80
2023-03-02T21:24:24.354Z,83.50
2023-03-02T21:29:31.704Z,73.40
2023-03-02T21:34:39.533Z,68.70
2023-03-02T21:39:47.422Z,64.37
2023-03-02T21:44:54.878Z,70.73
2023-03-02T21:50:03.670Z,94.33
2023-03-02T21:55:13.434Z,86.20
2023-03-02T22:00:25.918Z,79.63
2023-03-02T22:05:34.153Z,62.53
2023-03-02T22:10:44.959Z,73.53
2023-03-02T22:15:59.847Z,61.83
2023-03-02T22:21:22.726Z,56.20
2023-03-02T22:26:35.110Z,55.43
2023-03-02T22:31:46.156Z,54.80
2023-03-02T22:36:57.827Z,54.13
2023-03-02T22:42:15.028Z,53.42
2023-03-02T22:47:23.988Z,58.02
2023-03-02T22:52:38.141Z,87.67
2023-03-02T22:57:45.797Z,84.07
2023-03-02T23:08:25.347Z,73.83
2023-03-02T23:13:41.600Z,57.43
2023-03-02T23:18:50.570Z,56.17
2023-03-02T23:23:57.654Z,56.97
2023-03-02T23:29:04.958Z,56.00
2023-03-02T23:34:13.055Z,53.97
2023-03-02T23:39:23.410Z,53.33
2023-03-02T23:44:31.091Z,58.52
2023-03-02T23:49:39.565Z,50.53
2023-03-02T23:54:47.392Z,54.20
2023-03-02T23:59:54.885Z,57.87
